Sonic Adventure (DX): Overall Rankings

Records: Times | Rings | Scores | Races | Bosses | Freestyle
Leaders: Times | Rings | Scores | Races | Bosses | Freestyle | Overall
Rank Player Percent Points Date
1 Sonicspeedruner 98.1% 319 07-23-17
2 Gamepro011 98.0% 332 07-23-17
3 DarkPolarNight 96.9% 519 07-23-17
4 Jawzun 93.3% 1143 07-23-17
5 Dashjump 91.9% 1387 07-23-17
6 DarkspinesSonic 90.0% 1703 07-23-17
7 Avento128bits 89.8% 1737 07-23-17
8 ike6252 89.6% 1767 07-23-17
9 F-Man 87.8% 2080 07-23-17
10 Coolfansonic 87.3% 2161 07-23-17
11 HyperSonic7701 84.5% 2644 07-23-17
12 TheRealShadnic 83.9% 2746 07-23-17
13 yoshifan 82.9% 2927 07-23-17
14 frankoredstrato 82.5% 2991 07-23-17
15 francisco 81.5% 3154 07-23-17
16 Marth 81.3% 3196 07-23-17
17 InferSaime 80.1% 3395 07-23-17
18 PfoSonic 79.7% 3478 07-23-17
19 Paragod 79.2% 3557 07-23-17
20 THC98 78.4% 3697 07-23-17
21 Stefan 76.0% 4107 07-23-17
22 RPGnutter 73.9% 4473 07-23-17
23 bertin 73.7% 4492 07-23-17
24 sonicam 71.7% 4849 07-23-17
25 drminus 70.2% 5096 07-23-17
25 xXMegaManXx 70.2% 5096 07-23-17
27 Combo 65.8% 5850 07-23-17
28 chainchumper 65.7% 5862 07-23-17
29 chaos shadow 65.2% 5950 07-23-17
30 SkyLights 64.6% 6051 07-23-17
31 Diamond 62.5% 6416 07-23-17
32 Auriman1 60.6% 6743 07-23-17
33 GerbilSoft 60.6% 6752 07-23-17
34 OmegaDJ 60.6% 6753 07-23-17
35 magnum12 59.7% 6900 07-23-17
36 Thorn 57.5% 7270 07-23-17
37 P1 Pause 57.4% 7297 07-23-17
38 mike89 56.3% 7490 07-23-17
39 Groudon199 54.3% 7827 07-23-17
40 Dave Cramer 54.2% 7833 07-23-17
41 Shadow Jacky 53.2% 8007 07-23-17
42 Parax 53.2% 8020 07-23-17
43 Psymar 48.1% 8893 07-23-17
44 Arch 47.4% 9012 07-23-17
45 Chao_Fan 46.5% 9167 07-23-17
46 mauserman 45.4% 9355 07-23-17
47 Quartz 45.4% 9358 07-23-17
48 teamblackarms 44.5% 9496 07-23-17
49 James_Bertolli 43.5% 9684 07-23-17
50 Psyknux 43.4% 9687 07-23-17
51 NintenDan 43.1% 9751 07-23-17
52 Webber3000 42.6% 9829 07-23-17
53 Turbos 42.5% 9855 07-23-17
54 Cream147 42.0% 9929 07-23-17
54 Ring Rush 42.0% 9929 07-23-17
56 videogamemaster777 41.9% 9955 07-23-17
57 Siavash Tazari 41.7% 9977 07-23-17
58 Fr3nZy 41.5% 10018 07-23-17
59 buddychaos0415 41.1% 10094 07-23-17
60 SadisticMystic 40.5% 10197 07-23-17
61 eggFL 39.9% 10300 07-23-17
62 SB737 38.2% 10582 07-23-17
63 supersonic465 37.5% 10707 07-23-17
64 supersonicfan 37.2% 10762 07-23-17
65 FuzZerd 35.9% 10985 07-23-17
66 Aitamen 35.4% 11059 07-23-17
67 elecmouse101 35.1% 11119 07-23-17
68 BigAL49 35.0% 11127 07-23-17
69 danieldude 34.9% 11149 07-23-17
70 metanightmare22 33.9% 11326 07-23-17
71 Cyan Ryan 33.7% 11358 07-23-17
72 Austinf 33.5% 11383 07-23-17
73 dabestgamer 33.4% 11401 07-23-17
74 MiStEr_ShAoLiN 33.3% 11421 07-23-17
75 Andrea Ritsu 32.5% 11569 07-23-17
76 itsPersonnal 31.8% 11674 07-23-17
77 Cybrax 31.2% 11785 07-23-17
78 SilvertheAlmighty 31.1% 11794 07-23-17
79 Nim 30.6% 11895 07-23-17
80 VMU Player Banned 29.1% 12144 07-23-17
81 Staf 29.0% 12163 07-23-17
82 ethmar 28.8% 12198 07-23-17
83 Omega Rafael Santos 28.6% 12234 07-23-17
84 JamminX42 28.5% 12244 07-23-17
85 The T 28.5% 12253 07-23-17
86 EngiNerd 28.3% 12280 07-23-17
87 lordmetalsonic 27.8% 12368 07-23-17
88 welldooder64 27.2% 12477 07-23-17
89 Hipertails12 27.0% 12504 07-23-17
90 GreatStar 26.9% 12525 07-23-17
91 The Great Lord Mick 26.8% 12532 07-23-17
92 Sondow 26.7% 12547 07-23-17
93 LinksDarkArrows 26.6% 12577 07-23-17
94 Mastakirby 26.5% 12589 07-23-17
95 Skylace 25.5% 12764 07-23-17
96 a_moustache 24.3% 12971 07-23-17
97 Rolken 24.1% 13003 07-23-17
98 Kogen Player Banned 22.4% 13297 07-23-17
99 Spinballwizard 22.4% 13298 07-23-17
100 Xia 22.4% 13300 07-23-17
101 Twilisailor 21.9% 13375 07-23-17
102 f0rever_zer0 21.8% 13389 07-23-17
103 Cutiefox 21.7% 13420 07-23-17
104 Don 21.4% 13462 07-23-17
105 Game_Complete 21.3% 13477 07-23-17
106 Miles9999 21.2% 13497 07-23-17
107 andres430 21.0% 13528 07-23-17
108 Cruizer 20.7% 13580 07-23-17
109 iSonicKid2K 20.7% 13586 07-23-17
110 SADXTryHard 20.3% 13656 07-23-17
111 GarnetPrincess 19.9% 13715 07-23-17
112 AxlThunder 19.0% 13871 07-23-17
113 knuckles_sonic8 18.7% 13929 07-23-17
114 The Knuckles Chao 18.4% 13970 07-23-17
115 KinkyCadence 18.3% 13993 07-23-17
116 Team_Yoshi 18.0% 14053 07-23-17
117 Termon 17.9% 14066 07-23-17
118 LittleBigness 17.9% 14068 07-23-17
119 FoxBoy 17.7% 14095 07-23-17
120 SonicWinDX 17.6% 14111 07-23-17
121 Drakodan 16.8% 14245 07-23-17
122 Sonic Singularity 16.1% 14374 07-23-17
123 Pokemonmaster888 15.8% 14429 07-23-17
124 MPit08 14.7% 14613 07-23-17
125 SilverSonic 14.7% 14616 07-23-17
126 WeegeeZV 14.3% 14682 07-23-17
127 koinu93 14.3% 14684 07-23-17
128 Mo Player Banned 14.1% 14712 07-23-17
129 HyperSonic64 13.9% 14755 07-23-17
130 booo95 13.7% 14782 07-23-17
131 Cod4Scopes 13.6% 14792 07-23-17
132 Chawkk 13.5% 14822 07-23-17
133 paulie9990 13.5% 14824 07-23-17
134 Jerzia 13.4% 14827 07-23-17
135 SuperSonic101 13.2% 14870 07-23-17
136 N 13.2% 14874 07-23-17
137 Maxinfamily 13.1% 14889 07-23-17
138 Hunters13 13.0% 14899 07-23-17
139 LilZero 12.8% 14940 07-23-17
140 Kanimayo_Jp 12.6% 14964 07-23-17
141 BrokenArthritis 12.5% 14990 07-23-17
142 PsyBorg 12.4% 15002 07-23-17
143 Flying Fox 12.3% 15016 07-23-17
144 sonicspeed 12.1% 15062 07-23-17
145 Therio 12.0% 15074 07-23-17
146 douglas 12.0% 15081 07-23-17
147 Matt_TY 11.6% 15144 07-23-17
148 thewaytodawnnn 11.4% 15175 07-23-17
149 Cooljay 11.0% 15240 07-23-17
150 SeaWolf 10.8% 15288 07-23-17
151 SuperBlitzCraig 10.7% 15295 07-23-17
152 joecoolgames 10.7% 15302 07-23-17
153 videogamer1014 10.6% 15316 07-23-17
154 AC-Tygo 10.4% 15350 07-23-17
155 welshmoose05 10.3% 15366 07-23-17
156 OddCook 10.1% 15392 07-23-17
157 crazy1993 10.0% 15414 07-23-17
158 TFEC Headshot 9.9% 15432 07-23-17
159 Mcshuggets 9.7% 15469 07-23-17
160 niscool 9.6% 15490 07-23-17
161 Irregular Zero 9.3% 15539 07-23-17
162 nuckrieg 9.3% 15545 07-23-17
163 SonicAD 9.2% 15547 07-23-17
164 Mariobutch 9.2% 15554 07-23-17
165 Shadowthegreat 9.2% 15559 07-23-17
166 superjupi 9.2% 15562 07-23-17
167 SirTobbii 9.1% 15569 07-23-17
168 sonamyfan666 8.9% 15609 07-23-17
169 iarebored 8.7% 15636 07-23-17
170 SonicKnuckles 8.7% 15638 07-23-17
171 Powerjohn25 8.7% 15644 07-23-17
172 SaviourDC 8.6% 15656 07-23-17
173 adf 8.3% 15702 07-23-17
174 Werey 8.3% 15713 07-23-17
175 Megaman EXE565 8.1% 15740 07-23-17
176 Platformer 7.6% 15821 07-23-17
177 timpkmn89 7.6% 15827 07-23-17
178 ArcticDragon 7.6% 15837 07-23-17
179 wheatrich 7.5% 15845 07-23-17
180 Swift Hobo 7.4% 15869 07-23-17
181 FocusSight64 7.3% 15872 07-23-17
182 KitsuneYamaro 7.2% 15905 07-23-17
183 Rickyman48 7.1% 15908 07-23-17
184 Triseena 7.0% 15935 07-23-17
185 dShadow 6.7% 15989 07-23-17
186 Destroyer121121 6.6% 16001 07-23-17
187 CyberShadow 6.5% 16010 07-23-17
188 slade23 6.5% 16012 07-23-17
189 Starlight Sable 6.5% 16018 07-23-17
190 IsisDazs 6.4% 16043 07-23-17
191 BlankTH 6.2% 16070 07-23-17
192 Monkeh 6.2% 16075 07-23-17
193 SonicU260 6.0% 16104 07-23-17
194 Badlex727 5.9% 16117 07-23-17
194 Redd 5.9% 16117 07-23-17
196 Richied 5.9% 16124 07-23-17
197 DaDude 5.8% 16145 07-23-17
198 Swinkly 5.7% 16159 07-23-17
199 Zip 5.7% 16163 07-23-17
200 Vicklaw 5.6% 16168 07-23-17
201 sonicd5 5.6% 16173 07-23-17
202 ALundstrom10 5.3% 16227 07-23-17
203 tal39h 5.2% 16238 07-23-17
204 VeritasDL 5.1% 16250 07-23-17
205 Kirbymon30 5.1% 16260 07-23-17
206 soniccoloursunleashed 5.0% 16269 07-23-17
207 Drflash55 5.0% 16279 07-23-17
208 Bass 5.0% 16281 07-23-17
209 neaolas 4.8% 16311 07-23-17
210 superiorsonic 4.8% 16313 07-23-17
211 zapp 4.7% 16323 07-23-17
212 Yish 4.7% 16328 07-23-17
213 UninspiredUsername 4.6% 16341 07-23-17
214 Sonicsuperstar1 4.6% 16348 07-23-17
215 gamefreak1292 4.5% 16360 07-23-17
216 Sora_yx 4.3% 16394 07-23-17
217 Chaos_Overlord 4.2% 16408 07-23-17
218 TakaRikka 4.1% 16432 07-23-17
219 Valfore 4.0% 16441 07-23-17
220 ShinigamiMachine 3.8% 16476 07-23-17
221 Regano1000 3.8% 16480 07-23-17
222 MK 3.7% 16496 07-23-17
223 Ace747 3.6% 16512 07-23-17
224 Illidan 3.2% 16588 07-23-17
225 HHNNBBHHN 3.2% 16589 07-23-17
226 Venick409 3.1% 16595 07-23-17
227 Sithwarrior26 3.1% 16597 07-23-17
228 Brian_pso 3.1% 16599 07-23-17
228 nman36 3.1% 16599 07-23-17
230 Egor305 3.0% 16614 07-23-17
231 SkyBon 3.0% 16615 07-23-17
232 TheChaosEmeraIds 2.9% 16626 07-23-17
233 ingx24 2.9% 16627 07-23-17
234 dekki1234 2.9% 16631 07-23-17
235 Nickson98 2.9% 16634 07-23-17
236 Fozer 2.8% 16643 07-23-17
237 Colomb_30 2.8% 16646 07-23-17
238 FSSRandomvids 2.8% 16655 07-23-17
239 Aiko 2.7% 16664 07-23-17
240 sonic29887 2.7% 16672 07-23-17
241 TheUltraBlur 2.6% 16679 07-23-17
242 1stKirbyever 2.6% 16685 07-23-17
243 TimTH 2.5% 16699 07-23-17
244 Th4tN1nj4Turtl3 2.4% 16719 07-23-17
245 Cort_pso 2.3% 16731 07-23-17
245 ieatatsonic 2.3% 16731 07-23-17
247 Mariosonic15 2.3% 16738 07-23-17
248 Doom-9 2.3% 16744 07-23-17
249 Artie 2.2% 16753 07-23-17
250 HermitHelmet 2.1% 16764 07-23-17
250 MStitomix 2.1% 16764 07-23-17
252 Got4n 2.1% 16780 07-23-17
253 SuperSonic71087 2.0% 16784 07-23-17
254 Jose_15 2.0% 16792 07-23-17
255 Questionguy555 1.9% 16804 07-23-17
256 djmat 1.9% 16814 07-23-17
256 SuperSonicfan9595 1.9% 16814 07-23-17
258 Heroes_Hater 1.7% 16833 07-23-17
259 sonicandamy Player Banned 1.7% 16838 07-23-17
260 LancexExWx 1.7% 16843 07-23-17
261 Paixii 1.7% 16844 07-23-17
262 son1cgu1tar 1.7% 16847 07-23-17
263 BallzeH 1.6% 16860 07-23-17
263 Mankster101 1.6% 16860 07-23-17
265 BecauseWarAnvil 1.6% 16863 07-23-17
266 Jamixesa 1.5% 16870 07-23-17
267 SpiritDragon1995 1.5% 16880 07-23-17
268 Crydio 1.4% 16884 07-23-17
269 Shanekilz 1.4% 16885 07-23-17
270 MarewBFN 1.4% 16898 07-23-17
271 stanski 1.3% 16903 07-23-17
272 Sonique Hedgehog 1.3% 16905 07-23-17
273 p0ker 1.3% 16915 07-23-17
274 Blue Infamy 1.2% 16919 07-23-17
275 ErrortheCucco 1.2% 16930 07-23-17
276 Rikum22 1.2% 16933 07-23-17
277 Arthas 1.2% 16934 07-23-17
278 sonic1001 1.1% 16941 07-23-17
279 AJSIV 1.1% 16946 07-23-17
279 WingedInsignia 1.1% 16946 07-23-17
281 syco1098 1.1% 16948 07-23-17
282 Sonic the Hedgehod16 1.1% 16950 07-23-17
283 ASINISTERTACO 1.0% 16958 07-23-17
284 Calfd 1.0% 16961 07-23-17
285 sonicfan9 1.0% 16962 07-23-17
286 BlackArmsShadow 0.9% 16971 07-23-17
287 themachoman202 0.9% 16973 07-23-17
288 darkstarblaze 0.9% 16975 07-23-17
289 shadowblast63 Player Banned 0.9% 16979 07-23-17
290 Greham Adelphis 0.9% 16981 07-23-17
291 Fivavoa 0.9% 16982 07-23-17
292 MastaToken 0.9% 16984 07-23-17
292 Mr. Jones 0.9% 16984 07-23-17
294 Ben1502 0.8% 16986 07-23-17
295 arcfx1985 0.8% 16987 07-23-17
296 ptorflaxendrosis 0.8% 16988 07-23-17
297 TommyeAsY 0.8% 16990 07-23-17
298 FlandreScarlet9999vr 0.8% 16994 07-23-17
298 Gvozdevik 0.8% 16994 07-23-17
300 Knuckles 0.8% 16995 07-23-17
301 Zeldocto 0.8% 16997 07-23-17
302 BeeAwwb 0.8% 16999 07-23-17
302 KaM Mark MaK 0.8% 16999 07-23-17
304 ShadouZaHejjihoggu 0.7% 17007 07-23-17
305 Sarger001 0.7% 17012 07-23-17
306 dragondragon18 0.7% 17015 07-23-17
306 Sonic62 0.7% 17015 07-23-17
308 Sonic The Star 0.7% 17016 07-23-17
309 darkersupershadic 0.7% 17017 07-23-17
310 Grady219 0.6% 17022 07-23-17
310 Shadygamerfreak 0.6% 17022 07-23-17
310 SonicK100 0.6% 17022 07-23-17
313 BioShadow 0.6% 17023 07-23-17
314 Sogeking 0.6% 17024 07-23-17
315 Jawaah 0.6% 17029 07-23-17
316 Antek 0.6% 17032 07-23-17
317 Klaus 0.6% 17034 07-23-17
318 SilverK 0.6% 17035 07-23-17
319 SpinDashMaster 0.5% 17043 07-23-17
320 Videogamer123 0.5% 17044 07-23-17
321 isaihtb11 0.4% 17059 07-23-17
321 oTaiIilLsS 0.4% 17059 07-23-17
323 zaktu40 0.4% 17062 07-23-17
324 OhNoes! 0.4% 17063 07-23-17
325 gaara1234 0.4% 17066 07-23-17
325 S-MS32X-S 0.4% 17066 07-23-17
327 gamed00d 0.4% 17067 07-23-17
327 Mad Andy 0.4% 17067 07-23-17
329 Mister_Slick 0.3% 17078 07-23-17
330 Sonic06Fan 0.3% 17081 07-23-17
331 Rush Hero 0.3% 17082 07-23-17
332 SonicMega167 0.3% 17087 07-23-17
333 Iwannabelink 0.2% 17089 07-23-17
334 sonknuck23 0.2% 17092 07-23-17
335 DanielTheFalcon 0.2% 17102 07-23-17
336 gamer1245 0.2% 17103 07-23-17
337 Burningskull123 0.1% 17106 07-23-17
338 Sonicontherun 0.1% 17117 07-23-17
339 Lil_Dude 0.1% 17122 07-23-17
340 antiwwe 0.0% 17123 07-23-17
341 Tyrouble 0.0% 17125 07-23-17
342 Genuine Hedgehog 0.0% 17126 07-23-17
342 SonataSpinDash 0.0% 17126 07-23-17
344 Cbwade15 0.0% 17130 07-23-17
345 MegabombBlade 0.0% 17140 07-23-17
345 neji_hyuuga 0.0% 17140 07-23-17
345 Over 0.0% 17140 07-23-17
345 sdj6707 Player Banned 0.0% 17140 07-23-17
345 Tran Sonic Fan Player Banned 0.0% 17140 07-23-17

This page is using the New Data Table System. [FUTURE]

Game ID: 3 | Category ID: 10
Hits: 70,194 | Hits This Month: 161 | DB Calls: 21 | Mem Usage: 5.48 MB | Time: 0.13s | Printable

The Sonic Center v3.9
Copyright 2003-2011 by The Sonic Center Team.